Time;durP1;ratioP1;P1;durP2;ratioP2;P2;SDS_P1;SDS_P2;PMS_P1;PMS_P2;Temp;Humidity;BMP_temperature;BMP_pressure;BME280_temperature;BME280_humidity;BME280_pressure;Samples;Min_cycle;Max_cycle;Signal;HPM_P1;HPM_P2
2023/01/06 00:00:25;;;;;;;9.53;2.40;;;10.10;99.90;;;;;;4925577;29;20797;-88
2023/01/06 00:02:51;;;;;;;4.50;2.20;;;10.10;99.90;;;;;;4941438;29;20185;-88
2023/01/06 00:05:16;;;;;;;7.73;2.77;;;10.10;99.90;;;;;;4958475;29;20424;-87
2023/01/06 00:07:43;;;;;;;5.97;2.57;;;10.10;99.90;;;;;;4941511;29;20266;-88
2023/01/06 00:10:10;;;;;;;3.10;2.05;;;10.10;99.90;;;;;;4925801;29;20240;-88
2023/01/06 00:12:36;;;;;;;2.97;2.20;;;10.10;99.90;;;;;;4957812;29;20188;-87
2023/01/06 00:15:02;;;;;;;7.00;2.78;;;10.10;99.90;;;;;;4958129;29;20549;-88
2023/01/06 00:17:29;;;;;;;4.25;2.00;;;10.10;99.90;;;;;;4941069;29;20530;-87
2023/01/06 00:19:55;;;;;;;7.10;2.40;;;10.10;99.90;;;;;;4958321;29;20272;-87
2023/01/06 00:22:21;;;;;;;5.28;2.20;;;10.10;99.90;;;;;;4925947;29;20217;-87
2023/01/06 00:24:46;;;;;;;5.37;1.63;;;10.20;99.90;;;;;;4941598;29;20288;-86
2023/01/06 00:27:12;;;;;;;3.37;2.10;;;10.20;99.90;;;;;;4926106;29;20325;-86
2023/01/06 00:29:37;;;;;;;7.53;2.90;;;10.10;99.90;;;;;;4940848;29;20605;-88
2023/01/06 00:32:03;;;;;;;2.63;1.80;;;10.10;99.90;;;;;;4925262;29;20248;-89
2023/01/06 00:34:28;;;;;;;6.57;1.43;;;10.20;99.90;;;;;;4958002;29;20181;-88
2023/01/06 00:36:55;;;;;;;3.20;1.50;;;10.10;99.90;;;;;;4940665;29;20185;-88
2023/01/06 00:39:21;;;;;;;3.45;1.35;;;10.10;99.90;;;;;;4940288;29;20272;-88
2023/01/06 00:42:02;;;;;;;3.17;1.57;;;10.10;99.90;;;;;;4924674;29;20355;-88
2023/01/06 00:44:35;;;;;;;1.83;1.35;;;10.10;99.90;;;;;;4940534;29;20483;-89
2023/01/06 00:47:02;;;;;;;5.43;1.33;;;10.10;99.90;;;;;;4958274;29;20177;-88
2023/01/06 00:49:28;;;;;;;6.25;1.60;;;10.10;99.90;;;;;;4957710;29;20831;-88
2023/01/06 00:51:54;;;;;;;2.80;1.13;;;10.20;99.90;;;;;;4958037;29;20220;-89
2023/01/06 00:54:19;;;;;;;1.77;1.20;;;10.20;99.90;;;;;;4940635;29;20945;-89
2023/01/06 00:56:48;;;;;;;2.83;1.30;;;10.20;99.90;;;;;;4940877;29;20415;-89
2023/01/06 00:59:16;;;;;;;3.53;1.35;;;10.20;99.90;;;;;;4956872;28;20224;-89
2023/01/06 01:01:42;;;;;;;3.78;1.20;;;10.20;99.90;;;;;;4940467;29;20260;-89
2023/01/06 01:04:09;;;;;;;1.92;1.13;;;10.20;99.90;;;;;;4940318;29;20526;-88
2023/01/06 01:06:35;;;;;;;4.13;1.30;;;10.20;99.90;;;;;;4924600;29;20185;-89
2023/01/06 01:09:01;;;;;;;2.50;1.23;;;10.10;99.90;;;;;;4940556;29;20181;-88
2023/01/06 01:14:13;;;;;;;2.28;1.05;;;10.20;99.90;;;;;;4957552;29;20723;-89
2023/01/06 01:16:39;;;;;;;3.70;1.00;;;10.20;99.90;;;;;;4957302;29;20518;-89
2023/01/06 01:19:05;;;;;;;3.90;0.93;;;10.20;99.90;;;;;;4958007;29;20554;-89
2023/01/06 01:21:30;;;;;;;1.60;1.20;;;10.20;99.90;;;;;;4957164;29;20216;-89
2023/01/06 01:23:56;;;;;;;2.60;0.97;;;10.10;99.90;;;;;;4957403;29;20419;-89
2023/01/06 01:26:22;;;;;;;3.33;1.30;;;10.10;99.90;;;;;;4940497;29;20189;-89
2023/01/06 01:28:47;;;;;;;3.57;1.40;;;10.10;99.90;;;;;;4940255;29;20295;-90
2023/01/06 01:31:14;;;;;;;1.93;1.00;;;10.10;99.90;;;;;;4957717;29;20185;-90
2023/01/06 01:33:41;;;;;;;2.28;1.00;;;10.10;99.90;;;;;;4924703;29;20235;-90
2023/01/06 01:36:09;;;;;;;3.10;1.45;;;10.10;99.90;;;;;;4940388;29;20227;-90
2023/01/06 01:38:35;;;;;;;7.93;1.52;;;10.10;99.90;;;;;;4940251;29;20184;-90
2023/01/06 01:41:01;;;;;;;2.60;1.20;;;10.10;99.90;;;;;;4940853;29;20213;-90
2023/01/06 01:44:22;;;;;;;1.95;1.10;;;10.20;99.90;;;;;;4957394;29;20461;-90
2023/01/06 01:46:48;;;;;;;8.10;1.23;;;10.10;99.90;;;;;;4901105;29;20186;-90
2023/01/06 01:49:19;;;;;;;1.83;0.80;;;10.10;99.90;;;;;;4921796;29;20256;-90
2023/01/06 01:51:47;;;;;;;3.03;1.23;;;10.10;99.90;;;;;;4939746;29;20185;-90
2023/01/06 01:54:24;;;;;;;5.53;1.30;;;10.20;99.90;;;;;;4942111;29;20184;-87
2023/01/06 01:56:57;;;;;;;5.03;1.73;;;10.20;99.90;;;;;;4957478;29;20188;-90
2023/01/06 01:59:27;;;;;;;4.82;1.30;;;10.30;99.90;;;;;;4940135;29;20287;-90
2023/01/06 02:01:53;;;;;;;7.55;2.83;;;10.20;99.90;;;;;;4939938;29;20295;-88
2023/01/06 02:04:21;;;;;;;5.13;1.00;;;10.20;99.90;;;;;;4939631;29;20328;-87
2023/01/06 02:06:49;;;;;;;2.20;1.00;;;10.20;99.90;;;;;;4956689;29;20767;-90
2023/01/06 02:09:28;;;;;;;3.15;1.33;;;10.30;99.90;;;;;;4924044;29;20561;-90
2023/01/06 02:11:56;;;;;;;3.20;1.45;;;10.20;99.90;;;;;;4938872;29;20243;-90
2023/01/06 02:14:24;;;;;;;3.28;1.13;;;10.20;99.90;;;;;;4923763;29;20185;-90
2023/01/06 02:17:05;;;;;;;2.17;1.10;;;10.20;99.90;;;;;;4956690;29;20185;-90
2023/01/06 02:19:49;;;;;;;4.13;1.30;;;10.20;99.90;;;;;;4956767;29;20181;-90
2023/01/06 02:22:48;;;;;;;5.32;1.40;;;10.10;99.90;;;;;;4939158;29;20209;-90
2023/01/06 02:25:28;;;;;;;4.05;1.52;;;10.10;99.90;;;;;;4956652;29;20204;-90
2023/01/06 02:28:12;;;;;;;5.40;1.08;;;10.10;99.90;;;;;;4956617;29;20520;-89
2023/01/06 02:31:21;;;;;;;2.85;1.10;;;10.10;99.90;;;;;;4957445;29;20232;-90
2023/01/06 02:34:02;;;;;;;5.97;1.40;;;10.10;99.90;;;;;;4939628;29;20195;-90
2023/01/06 02:36:43;;;;;;;1.45;0.98;;;10.10;99.90;;;;;;4939758;29;20177;-89
2023/01/06 02:39:21;;;;;;;4.80;0.88;;;10.10;99.90;;;;;;4957090;29;20188;-89
2023/01/06 02:42:01;;;;;;;5.22;1.30;;;10.10;99.90;;;;;;4956362;29;20200;-90
2023/01/06 02:44:30;;;;;;;6.82;1.52;;;10.00;99.90;;;;;;4938848;29;20553;-89
2023/01/06 02:47:18;;;;;;;1.88;1.23;;;10.00;99.90;;;;;;4956321;29;20204;-89
2023/01/06 02:50:07;;;;;;;6.70;1.25;;;10.00;99.90;;;;;;4938590;29;20712;-89
2023/01/06 02:52:45;;;;;;;2.65;1.17;;;10.00;99.90;;;;;;4955599;29;20200;-90
2023/01/06 02:55:16;;;;;;;3.55;1.48;;;10.10;99.90;;;;;;4955918;29;20220;-90
2023/01/06 02:57:58;;;;;;;5.00;1.13;;;10.00;99.90;;;;;;4938260;29;20212;-90
2023/01/06 03:00:31;;;;;;;2.80;1.20;;;10.00;99.90;;;;;;4938754;29;20242;-88
2023/01/06 03:03:00;;;;;;;5.22;1.08;;;10.10;99.90;;;;;;4955913;29;20196;-90
2023/01/06 03:05:27;;;;;;;2.65;0.90;;;10.10;99.90;;;;;;4938673;28;20204;-89
2023/01/06 03:07:56;;;;;;;2.88;1.15;;;10.10;99.90;;;;;;4956394;29;20567;-88
2023/01/06 03:10:25;;;;;;;3.28;1.13;;;10.10;99.90;;;;;;4939342;29;20659;-89
2023/01/06 03:12:59;;;;;;;10.57;1.40;;;10.10;99.90;;;;;;4956013;29;20173;-90
2023/01/06 03:15:25;;;;;;;2.65;1.30;;;10.10;99.90;;;;;;4956080;29;20195;-89
2023/01/06 03:17:51;;;;;;;6.40;1.27;;;10.10;99.90;;;;;;4956536;29;20177;-90
2023/01/06 03:20:17;;;;;;;3.00;1.00;;;10.10;99.90;;;;;;4939341;29;20634;-91
2023/01/06 03:22:44;;;;;;;2.40;0.98;;;10.10;99.90;;;;;;4940718;29;20327;-90
2023/01/06 03:25:10;;;;;;;1.45;0.90;;;10.10;99.90;;;;;;4943322;29;20195;-90
2023/01/06 03:27:36;;;;;;;3.83;1.00;;;10.10;99.90;;;;;;4959951;29;20188;-91
2023/01/06 03:30:07;;;;;;;2.40;1.10;;;10.10;99.90;;;;;;4943374;29;20630;-89
2023/01/06 03:32:54;;;;;;;1.80;1.20;;;10.10;99.90;;;;;;4959772;29;20200;-91
2023/01/06 03:35:38;;;;;;;5.00;1.30;;;10.10;99.90;;;;;;4961889;29;20169;-91
2023/01/06 03:38:36;;;;;;;2.65;1.23;;;10.10;99.90;;;;;;4960417;29;20176;-91
2023/01/06 03:43:10;;;;;;;5.82;1.20;;;10.10;99.90;;;;;;4943463;29;20268;-91
2023/01/06 03:44:17;;;;;;;5.63;1.33;;;10.10;99.90;;;;;;4959877;29;20188;-91
2023/01/06 03:46:51;;;;;;;2.67;1.42;;;10.10;99.90;;;;;;4959649;28;20200;-91
2023/01/06 03:49:24;;;;;;;2.97;0.95;;;10.10;99.90;;;;;;4943701;29;20268;-91
2023/01/06 03:51:57;;;;;;;5.32;1.10;;;10.10;99.90;;;;;;4943393;29;20189;-90
2023/01/06 03:54:41;;;;;;;2.92;1.00;;;10.10;99.90;;;;;;4961987;29;20188;-91
2023/01/06 03:57:17;;;;;;;2.17;1.10;;;10.20;99.90;;;;;;4961890;29;20157;-91
2023/01/06 03:59:57;;;;;;;1.83;0.80;;;10.20;99.90;;;;;;4943903;29;20184;-91
2023/01/06 04:02:23;;;;;;;1.38;0.90;;;10.20;99.90;;;;;;4960414;29;20215;-91
2023/01/06 04:05:15;;;;;;;2.95;1.40;;;10.10;99.90;;;;;;4943078;29;20188;-92
2023/01/06 04:07:42;;;;;;;2.00;0.85;;;10.20;99.90;;;;;;4959846;29;20169;-90
2023/01/06 04:10:09;;;;;;;1.35;1.00;;;10.20;99.90;;;;;;4960481;29;20196;-91
2023/01/06 04:12:37;;;;;;;3.65;1.20;;;10.20;99.90;;;;;;4943283;29;20664;-91
2023/01/06 04:15:15;;;;;;;1.92;1.15;;;10.20;99.90;;;;;;4943378;29;20185;-91
2023/01/06 04:17:42;;;;;;;1.88;0.68;;;10.10;99.90;;;;;;4941492;29;20169;-90
2023/01/06 04:20:12;;;;;;;2.22;0.80;;;10.10;99.90;;;;;;4957327;28;20578;-90
2023/01/06 04:22:38;;;;;;;3.80;0.82;;;10.20;99.90;;;;;;4959348;29;20197;-92
2023/01/06 04:25:04;;;;;;;2.83;0.90;;;10.20;99.90;;;;;;4959997;29;20236;-91
2023/01/06 04:27:29;;;;;;;2.35;0.80;;;10.20;99.90;;;;;;4926976;29;20189;-90
2023/01/06 04:29:55;;;;;;;1.33;0.73;;;10.30;99.90;;;;;;4943650;29;20189;-90
2023/01/06 04:32:20;;;;;;;2.87;0.70;;;10.30;99.90;;;;;;4957764;28;20233;-90
2023/01/06 04:34:46;;;;;;;1.60;0.90;;;10.30;99.90;;;;;;4961260;28;20626;-90
2023/01/06 04:37:12;;;;;;;1.63;0.67;;;10.40;99.90;;;;;;4962725;28;20184;-90
2023/01/06 04:39:37;;;;;;;2.93;0.80;;;10.40;99.90;;;;;;4929353;28;20212;-91
2023/01/06 04:42:03;;;;;;;2.87;1.00;;;10.40;99.90;;;;;;4945192;28;20204;-90
2023/01/06 04:44:28;;;;;;;2.53;0.80;;;10.30;99.90;;;;;;4961302;28;20188;-85
2023/01/06 04:46:54;;;;;;;3.03;0.90;;;10.20;99.90;;;;;;4965477;28;20283;-88
2023/01/06 04:49:19;;;;;;;2.37;0.70;;;10.30;99.90;;;;;;4961426;28;20287;-90
2023/01/06 04:51:45;;;;;;;2.37;0.83;;;10.40;99.90;;;;;;4978229;28;20230;-90
2023/01/06 04:54:11;;;;;;;1.83;0.70;;;10.30;99.90;;;;;;4945694;28;20180;-90
2023/01/06 04:56:36;;;;;;;1.23;1.00;;;10.30;99.90;;;;;;4960677;28;20275;-89
2023/01/06 04:59:02;;;;;;;1.20;0.90;;;10.30;99.90;;;;;;4929716;28;20195;-90
2023/01/06 05:01:27;;;;;;;4.60;0.97;;;10.30;99.90;;;;;;4945422;28;20634;-88
2023/01/06 05:03:53;;;;;;;2.40;0.77;;;10.30;99.90;;;;;;4944912;28;20191;-91
2023/01/06 05:06:19;;;;;;;1.90;0.70;;;10.30;99.90;;;;;;4962762;28;20570;-91
2023/01/06 05:08:46;;;;;;;2.67;0.90;;;10.30;99.90;;;;;;4960906;28;20609;-92
2023/01/06 05:11:22;;;;;;;1.65;0.80;;;10.30;99.90;;;;;;4978047;28;20180;-92
2023/01/06 05:13:48;;;;;;;1.45;0.55;;;10.40;99.90;;;;;;4977973;28;20235;-91
2023/01/06 05:16:29;;;;;;;2.30;0.80;;;10.40;99.90;;;;;;4978871;28;20176;-91
2023/01/06 05:18:55;;;;;;;1.77;0.70;;;10.40;99.90;;;;;;4978443;28;20180;-91
2023/01/06 05:21:23;;;;;;;1.67;0.73;;;10.40;99.90;;;;;;4961578;28;20208;-91
2023/01/06 05:23:52;;;;;;;1.88;0.60;;;10.50;99.90;;;;;;4960507;28;20299;-91
2023/01/06 05:26:21;;;;;;;0.70;0.60;;;10.50;99.90;;;;;;4960757;28;20188;-91
2023/01/06 05:28:47;;;;;;;2.00;0.68;;;10.50;99.90;;;;;;4978469;28;20238;-91
2023/01/06 05:31:13;;;;;;;2.33;0.90;;;10.40;99.90;;;;;;4945947;28;20212;-92
2023/01/06 05:33:39;;;;;;;1.00;0.70;;;10.40;99.90;;;;;;4945254;28;20420;-91
2023/01/06 05:36:08;;;;;;;3.25;0.90;;;10.50;99.90;;;;;;4978642;28;20424;-91
2023/01/06 05:38:34;;;;;;;1.13;0.60;;;10.50;99.90;;;;;;4977500;28;20184;-91
2023/01/06 05:41:00;;;;;;;0.90;0.70;;;10.50;99.90;;;;;;4944932;28;20227;-91
2023/01/06 05:43:26;;;;;;;1.30;0.93;;;10.50;99.90;;;;;;4977708;28;20191;-90
2023/01/06 05:45:52;;;;;;;1.95;1.08;;;10.50;99.90;;;;;;4974654;28;20487;-89
2023/01/06 05:48:19;;;;;;;1.67;0.80;;;10.50;99.90;;;;;;4956895;28;20185;-91
2023/01/06 05:50:44;;;;;;;0.98;0.60;;;10.50;99.90;;;;;;4960252;28;20236;-91
2023/01/06 05:53:10;;;;;;;0.93;0.80;;;10.60;99.90;;;;;;4960718;28;20218;-91
2023/01/06 05:55:35;;;;;;;1.23;0.70;;;10.60;99.90;;;;;;4944871;28;20188;-90
2023/01/06 05:58:01;;;;;;;1.47;1.17;;;10.60;99.90;;;;;;4960580;28;20184;-90
2023/01/06 06:00:27;;;;;;;2.00;0.73;;;10.60;99.90;;;;;;4960769;28;20227;-92
2023/01/06 06:02:53;;;;;;;1.13;0.80;;;10.60;99.90;;;;;;4955741;28;20248;-92
2023/01/06 06:05:19;;;;;;;0.82;0.68;;;10.60;99.90;;;;;;4943482;28;20459;-88
2023/01/06 06:07:54;;;;;;;3.27;1.00;;;10.60;99.90;;;;;;4957954;28;20191;-90
2023/01/06 06:10:21;;;;;;;2.38;0.90;;;10.60;99.90;;;;;;4980410;28;20179;-91
2023/01/06 06:12:46;;;;;;;1.25;0.70;;;10.70;99.90;;;;;;4968459;28;20547;-90
2023/01/06 06:15:12;;;;;;;1.43;0.70;;;10.70;99.90;;;;;;4962209;28;20274;-92
2023/01/06 06:17:38;;;;;;;2.03;0.70;;;10.70;99.90;;;;;;4964668;28;20207;-91
2023/01/06 06:20:04;;;;;;;2.73;1.00;;;10.70;99.90;;;;;;4979538;28;20184;-90
2023/01/06 06:22:30;;;;;;;3.90;0.77;;;10.70;99.90;;;;;;4947922;28;20207;-91
2023/01/06 06:24:55;;;;;;;1.90;1.00;;;10.70;99.90;;;;;;4981177;28;20222;-91
2023/01/06 06:27:21;;;;;;;1.27;0.80;;;10.70;99.90;;;;;;4946235;28;20215;-91
2023/01/06 06:29:46;;;;;;;1.53;0.73;;;10.70;99.90;;;;;;4977278;28;20180;-92
2023/01/06 06:32:12;;;;;;;0.83;0.70;;;10.70;99.90;;;;;;4944753;28;20193;-91
2023/01/06 06:34:37;;;;;;;3.23;0.80;;;10.70;99.90;;;;;;4962024;28;20251;-91
2023/01/06 06:37:03;;;;;;;2.97;0.93;;;10.80;99.90;;;;;;4945957;28;20184;-92
2023/01/06 06:39:29;;;;;;;1.20;1.00;;;10.80;99.90;;;;;;4947849;28;20192;-93
2023/01/06 06:41:54;;;;;;;1.60;0.83;;;10.70;99.90;;;;;;4965853;28;20280;-91
2023/01/06 06:44:20;;;;;;;2.57;1.10;;;10.70;99.90;;;;;;4980772;28;20184;-92
2023/01/06 06:46:45;;;;;;;2.80;1.03;;;10.70;99.90;;;;;;4977935;28;20188;-89
2023/01/06 06:49:11;;;;;;;3.90;1.03;;;10.70;99.90;;;;;;4945389;28;20242;-90
2023/01/06 06:51:36;;;;;;;1.13;0.70;;;10.70;99.90;;;;;;4961843;28;20220;-85
2023/01/06 06:54:03;;;;;;;2.83;0.90;;;10.70;99.90;;;;;;4946304;28;20529;-91
2023/01/06 06:56:28;;;;;;;2.42;0.80;;;10.70;99.90;;;;;;4961906;28;20180;-90
2023/01/06 06:58:54;;;;;;;1.00;0.70;;;10.70;99.90;;;;;;4948467;28;20637;-91
2023/01/06 07:01:20;;;;;;;1.47;0.80;;;10.60;99.90;;;;;;4937600;29;20256;-91
2023/01/06 07:03:46;;;;;;;2.00;0.80;;;10.60;99.90;;;;;;4944512;29;20680;-91
2023/01/06 07:06:14;;;;;;;1.27;0.73;;;10.70;99.90;;;;;;4945699;29;20185;-90
2023/01/06 07:08:45;;;;;;;5.63;1.02;;;10.60;99.90;;;;;;4965442;29;20409;-90
2023/01/06 07:11:11;;;;;;;6.50;0.80;;;10.70;99.90;;;;;;4974634;29;20211;-91
2023/01/06 07:13:36;;;;;;;1.90;0.90;;;10.70;99.90;;;;;;4956220;29;20292;-91
2023/01/06 07:16:02;;;;;;;0.70;0.60;;;10.70;99.90;;;;;;4930378;29;20233;-91
2023/01/06 07:18:28;;;;;;;1.20;0.80;;;10.70;99.90;;;;;;4929140;29;20218;-90
2023/01/06 07:20:53;;;;;;;1.00;0.63;;;10.70;99.90;;;;;;4944079;29;20439;-91
2023/01/06 07:23:20;;;;;;;1.83;0.97;;;10.70;99.90;;;;;;4945096;29;20288;-90
2023/01/06 07:25:54;;;;;;;2.50;0.77;;;10.70;99.90;;;;;;4944080;29;20188;-91
2023/01/06 07:28:20;;;;;;;1.30;0.95;;;10.70;99.90;;;;;;4928665;29;20185;-91
2023/01/06 07:30:45;;;;;;;3.63;1.67;;;10.70;99.90;;;;;;4928376;29;20181;-90
2023/01/06 07:33:11;;;;;;;1.33;0.77;;;10.80;99.90;;;;;;4962496;29;20649;-90
2023/01/06 07:35:36;;;;;;;1.60;0.80;;;10.80;99.90;;;;;;4963754;29;20646;-91
2023/01/06 07:38:05;;;;;;;1.40;0.70;;;10.70;99.90;;;;;;4963818;29;20189;-91
2023/01/06 07:40:30;;;;;;;0.80;0.70;;;10.80;99.90;;;;;;4929605;29;20199;-92
2023/01/06 07:42:56;;;;;;;1.53;0.80;;;10.80;99.90;;;;;;4944748;29;20205;-90
2023/01/06 07:45:21;;;;;;;2.13;1.03;;;10.70;99.90;;;;;;4943801;29;20653;-90
2023/01/06 07:47:47;;;;;;;0.87;0.60;;;10.80;99.90;;;;;;4943762;29;20185;-89
2023/01/06 07:50:12;;;;;;;1.40;1.03;;;10.80;99.90;;;;;;4943247;29;20235;-90
2023/01/06 07:52:38;;;;;;;1.27;0.80;;;10.80;99.90;;;;;;4943077;29;20199;-90
2023/01/06 07:55:04;;;;;;;1.27;1.17;;;10.80;99.90;;;;;;4942821;29;20180;-90
2023/01/06 07:57:30;;;;;;;2.15;1.95;;;10.80;99.90;;;;;;4943484;29;20193;-91
2023/01/06 07:59:56;;;;;;;2.57;2.37;;;10.90;99.90;;;;;;4943505;29;20618;-91
2023/01/06 08:02:22;;;;;;;1.40;1.00;;;10.90;99.90;;;;;;4943326;29;20216;-91
2023/01/06 08:04:48;;;;;;;1.85;1.25;;;10.90;99.90;;;;;;4959694;29;20428;-91
2023/01/06 08:07:15;;;;;;;1.00;0.68;;;10.90;99.90;;;;;;4959552;29;20188;-91
2023/01/06 08:09:41;;;;;;;1.25;0.60;;;10.90;99.90;;;;;;4941871;29;20641;-85
2023/01/06 08:12:07;;;;;;;0.80;0.70;;;10.90;99.90;;;;;;4959922;29;20196;-91
2023/01/06 08:14:32;;;;;;;2.28;1.95;;;10.90;99.90;;;;;;4943149;29;20256;-91
2023/01/06 08:16:58;;;;;;;0.90;0.80;;;10.90;99.90;;;;;;4926621;29;20208;-91
2023/01/06 08:19:24;;;;;;;0.70;0.70;;;10.90;99.90;;;;;;4942808;29;20192;-91
2023/01/06 08:21:49;;;;;;;0.70;0.60;;;10.90;99.90;;;;;;4926617;29;20220;-90
2023/01/06 08:24:15;;;;;;;1.10;0.70;;;10.90;99.90;;;;;;4943129;29;20192;-90
2023/01/06 08:26:41;;;;;;;3.50;0.67;;;11.00;99.90;;;;;;4943668;29;20181;-91
2023/01/06 08:29:07;;;;;;;0.83;0.60;;;11.00;99.90;;;;;;4926821;29;20193;-91
2023/01/06 08:31:33;;;;;;;1.33;0.65;;;11.00;99.90;;;;;;4960353;29;20180;-90
2023/01/06 08:33:58;;;;;;;0.60;0.50;;;11.00;99.90;;;;;;4927349;29;20713;-91
2023/01/06 08:36:25;;;;;;;0.67;0.53;;;11.10;99.90;;;;;;4942926;29;20416;-91
2023/01/06 08:38:51;;;;;;;2.05;0.77;;;11.10;99.90;;;;;;4942591;29;20188;-91
2023/01/06 08:41:16;;;;;;;0.80;0.50;;;11.20;99.90;;;;;;4943397;29;20219;-89
2023/01/06 08:43:44;;;;;;;1.37;0.50;;;11.20;99.90;;;;;;4942898;29;20181;-90
2023/01/06 08:46:12;;;;;;;0.90;0.70;;;11.20;99.90;;;;;;4959223;29;20405;-90
2023/01/06 08:48:38;;;;;;;0.80;0.60;;;11.20;99.90;;;;;;4926163;29;20252;-89
2023/01/06 08:51:15;;;;;;;0.67;0.57;;;11.30;99.90;;;;;;4942099;29;20177;-91
2023/01/06 08:53:42;;;;;;;1.45;0.70;;;11.20;99.90;;;;;;4959150;29;20388;-90
2023/01/06 08:56:23;;;;;;;0.60;0.50;;;11.20;99.90;;;;;;4958900;29;20192;-90
2023/01/06 08:58:57;;;;;;;0.88;0.50;;;11.20;99.90;;;;;;4959152;29;20531;-89
2023/01/06 09:01:29;;;;;;;0.73;0.60;;;11.20;99.90;;;;;;4959361;29;20212;-89
2023/01/06 09:03:56;;;;;;;0.70;0.50;;;11.30;99.90;;;;;;4958453;29;20207;-88
2023/01/06 09:06:22;;;;;;;2.33;0.50;;;11.30;99.90;;;;;;4958145;29;20629;-89
2023/01/06 09:08:48;;;;;;;0.80;0.70;;;11.30;99.90;;;;;;4958185;29;20181;-80
2023/01/06 09:11:15;;;;;;;1.30;0.60;;;11.30;99.90;;;;;;4958133;29;20195;-80
2023/01/06 09:13:41;;;;;;;0.60;0.50;;;11.40;99.90;;;;;;4924680;29;20188;-79
2023/01/06 09:16:08;;;;;;;4.67;0.70;;;11.40;99.90;;;;;;4924769;29;20425;-79
2023/01/06 09:18:35;;;;;;;0.80;0.50;;;11.40;99.90;;;;;;4944790;28;20424;-82
2023/01/06 09:21:01;;;;;;;0.75;0.50;;;11.40;99.90;;;;;;4960004;28;20230;-84
2023/01/06 09:23:27;;;;;;;0.70;0.50;;;11.30;99.90;;;;;;4944291;28;20189;-83
2023/01/06 09:25:54;;;;;;;0.60;0.50;;;11.30;99.90;;;;;;4976319;28;20514;-84
2023/01/06 09:28:20;;;;;;;1.15;0.55;;;11.20;99.90;;;;;;4943912;28;20529;-85
2023/01/06 09:30:47;;;;;;;0.60;0.50;;;11.20;99.90;;;;;;4943100;28;20282;-85
2023/01/06 09:33:13;;;;;;;0.70;0.50;;;11.20;99.90;;;;;;4959464;28;20536;-84
2023/01/06 09:35:39;;;;;;;0.90;0.50;;;11.20;99.90;;;;;;4942871;28;20283;-84
2023/01/06 09:38:04;;;;;;;0.60;0.50;;;11.20;99.90;;;;;;4958747;28;20420;-85
2023/01/06 09:40:51;;;;;;;0.87;0.60;;;11.20;99.90;;;;;;4959244;28;20587;-83
2023/01/06 09:43:46;;;;;;;0.57;0.43;;;11.20;99.90;;;;;;4959268;28;20191;-84
2023/01/06 09:46:15;;;;;;;0.70;0.47;;;11.20;99.90;;;;;;4958624;28;20190;-84
2023/01/06 09:48:56;;;;;;;0.52;0.43;;;;;;;;;;4976170;28;20184;-85
2023/01/06 09:51:24;;;;;;;0.80;0.70;;;11.20;99.90;;;;;;4976694;28;20180;-85
2023/01/06 09:53:59;;;;;;;1.50;0.50;;;11.20;99.90;;;;;;4958662;28;20195;-84
2023/01/06 09:56:25;;;;;;;0.57;0.45;;;11.30;99.90;;;;;;4958563;28;20175;-86
2023/01/06 09:59:21;;;;;;;0.60;0.50;;;11.40;99.90;;;;;;4975632;28;20180;-86
2023/01/06 10:01:49;;;;;;;0.50;0.40;;;11.40;99.90;;;;;;4958235;28;20294;-86
2023/01/06 10:04:25;;;;;;;1.20;0.60;;;;;;;;;;4976138;28;20180;-86
2023/01/06 10:06:59;;;;;;;0.80;0.50;;;11.40;99.90;;;;;;4975500;28;20160;-86
2023/01/06 10:09:49;;;;;;;0.90;0.60;;;11.40;99.90;;;;;;4976316;28;20179;-85
2023/01/06 10:12:21;;;;;;;1.70;0.50;;;11.20;99.90;;;;;;4958391;28;20838;-86
2023/01/06 10:14:52;;;;;;;1.65;0.80;;;11.10;99.90;;;;;;4961220;28;20180;-86
2023/01/06 10:17:29;;;;;;;2.65;0.60;;;11.10;99.90;;;;;;4961168;28;20172;-87
2023/01/06 10:20:15;;;;;;;0.82;0.68;;;11.10;99.90;;;;;;4957559;28;20613;-87
2023/01/06 10:22:52;;;;;;;0.98;0.88;;;11.00;99.90;;;;;;4975728;28;20215;-87
2023/01/06 10:25:19;;;;;;;0.90;0.70;;;;;;;;;;4958446;28;20227;-86
2023/01/06 10:27:49;;;;;;;0.70;0.68;;;11.00;99.90;;;;;;4959821;28;20176;-87
2023/01/06 10:30:21;;;;;;;1.20;1.10;;;;;;;;;;4960873;28;20188;-91
2023/01/06 10:32:48;;;;;;;0.80;0.60;;;11.10;99.90;;;;;;4959355;28;20608;-90
2023/01/06 10:35:16;;;;;;;0.80;0.50;;;;;;;;;;4961271;28;20184;-89
2023/01/06 10:37:45;;;;;;;1.00;0.65;;;11.20;99.90;;;;;;4958966;28;20183;-86
2023/01/06 10:40:19;;;;;;;0.93;0.60;;;11.30;99.90;;;;;;4958099;28;20215;-85
2023/01/06 10:42:56;;;;;;;0.70;0.60;;;11.30;99.90;;;;;;4958892;28;20212;-84
2023/01/06 10:45:35;;;;;;;0.52;0.45;;;11.30;99.90;;;;;;4959540;28;20191;-85
2023/01/06 10:48:03;;;;;;;0.82;0.55;;;11.40;99.90;;;;;;4975787;28;20377;-85
2023/01/06 10:50:29;;;;;;;0.70;0.52;;;11.40;99.90;;;;;;4975865;28;20259;-84
2023/01/06 10:52:55;;;;;;;0.60;0.50;;;11.50;99.90;;;;;;4942145;28;20232;-92
2023/01/06 10:55:35;;;;;;;0.60;0.50;;;11.70;99.90;;;;;;4954063;28;20424;-89
2023/01/06 10:58:29;;;;;;;0.70;0.50;;;12.10;99.90;;;;;;4946116;28;20243;-89
2023/01/06 11:01:05;;;;;;;0.93;0.60;;;12.30;99.90;;;;;;4976369;28;20478;-91
2023/01/06 11:03:31;;;;;;;1.00;0.47;;;12.30;99.90;;;;;;4960000;28;20442;-91
2023/01/06 11:06:07;;;;;;;1.07;0.60;;;12.30;99.90;;;;;;4976242;28;20416;-90
2023/01/06 11:08:35;;;;;;;0.70;0.50;;;12.10;99.90;;;;;;4976888;28;20169;-91
2023/01/06 11:11:01;;;;;;;0.90;0.73;;;12.00;99.90;;;;;;4977607;28;20407;-89
2023/01/06 11:13:33;;;;;;;1.00;0.57;;;12.00;99.90;;;;;;4959106;28;21097;-91
2023/01/06 11:16:03;;;;;;;1.13;0.60;;;12.00;99.90;;;;;;4975373;28;20220;-85
2023/01/06 11:18:31;;;;;;;0.80;0.50;;;12.00;99.90;;;;;;4954518;29;20933;-91
2023/01/06 11:21:09;;;;;;;1.13;0.60;;;11.90;99.90;;;;;;4956220;29;20196;-90
2023/01/06 11:23:40;;;;;;;0.80;0.70;;;11.90;99.90;;;;;;4939972;29;20436;-90
2023/01/06 11:26:11;;;;;;;1.60;1.00;;;11.80;99.90;;;;;;4973479;28;20176;-88
2023/01/06 11:28:38;;;;;;;5.13;3.17;;;11.80;99.90;;;;;;4994757;28;20887;-90
2023/01/06 11:31:18;;;;;;;2.50;1.80;;;11.80;99.90;;;;;;4966319;28;20192;-87
2023/01/06 11:33:56;;;;;;;0.65;0.50;;;11.70;99.90;;;;;;4979963;28;20184;-90
2023/01/06 11:36:25;;;;;;;1.10;0.70;;;11.60;99.90;;;;;;4959465;28;20173;-90
2023/01/06 11:38:56;;;;;;;1.13;0.50;;;11.60;99.90;;;;;;4957127;28;20208;-90
2023/01/06 11:41:31;;;;;;;0.80;0.50;;;11.50;99.90;;;;;;4976669;28;20228;-92
2023/01/06 11:44:12;;;;;;;0.60;0.50;;;11.40;99.90;;;;;;4962490;28;20243;-92
2023/01/06 11:46:46;;;;;;;0.60;0.50;;;11.20;99.90;;;;;;4964446;28;20176;-93
2023/01/06 11:49:29;;;;;;;1.40;0.70;;;11.10;99.90;;;;;;4959673;28;20247;-93
2023/01/06 11:52:20;;;;;;;0.60;0.50;;;11.00;99.90;;;;;;4990361;28;20188;-91
2023/01/06 11:54:58;;;;;;;0.70;0.50;;;10.90;99.90;;;;;;4965543;28;20264;-92
2023/01/06 11:58:00;;;;;;;1.25;0.60;;;11.00;99.90;;;;;;4962311;28;20244;-92
2023/01/06 12:00:50;;;;;;;5.43;2.00;;;11.00;99.90;;;;;;4960214;29;20233;-91
2023/01/06 12:03:30;;;;;;;1.20;1.00;;;10.90;99.90;;;;;;4949398;28;20204;-91
2023/01/06 12:06:25;;;;;;;1.90;1.60;;;11.00;99.90;;;;;;4941220;28;20518;-90
2023/01/06 12:09:08;;;;;;;1.42;1.30;;;11.10;99.90;;;;;;4942216;29;20181;-91
2023/01/06 12:11:51;;;;;;;1.25;1.08;;;11.00;99.90;;;;;;4942322;29;20610;-91
2023/01/06 12:14:23;;;;;;;1.05;0.88;;;10.90;99.90;;;;;;4971899;28;20208;-91
2023/01/06 12:16:55;;;;;;;1.50;1.05;;;11.00;99.90;;;;;;4980742;28;20176;-91
2023/01/06 12:19:50;;;;;;;0.90;0.80;;;11.00;99.90;;;;;;4980713;28;20359;-92
2023/01/06 12:22:35;;;;;;;1.10;1.00;;;11.00;99.90;;;;;;4976883;28;20271;-91
2023/01/06 12:25:03;;;;;;;1.23;1.13;;;11.00;99.90;;;;;;4982259;28;20196;-92
2023/01/06 12:27:49;;;;;;;3.17;0.90;;;10.90;99.90;;;;;;4983828;28;20368;-90
2023/01/06 12:30:29;;;;;;;0.82;0.60;;;10.80;99.90;;;;;;4982528;28;20271;-91
2023/01/06 12:33:02;;;;;;;1.80;0.85;;;10.90;99.90;;;;;;4973835;28;20232;-91
2023/01/06 12:35:31;;;;;;;0.80;0.57;;;10.90;99.90;;;;;;4949928;29;20228;-91
2023/01/06 12:38:05;;;;;;;1.15;0.90;;;11.00;99.90;;;;;;4943314;29;20240;-91
2023/01/06 12:40:55;;;;;;;6.07;5.07;;;11.00;99.90;;;;;;4954647;28;20169;-90
2023/01/06 12:43:29;;;;;;;2.58;1.95;;;11.00;99.90;;;;;;4954744;28;20192;-91
2023/01/06 12:46:09;;;;;;;1.23;1.05;;;11.10;99.90;;;;;;4957173;28;20177;-91
2023/01/06 12:48:42;;;;;;;1.75;1.65;;;11.00;99.90;;;;;;4947423;29;20180;-90
2023/01/06 12:51:13;;;;;;;1.95;1.20;;;11.10;99.90;;;;;;4945460;29;20199;-91
2023/01/06 12:53:44;;;;;;;2.63;2.42;;;11.10;99.90;;;;;;4963691;29;20574;-91
2023/01/06 12:56:28;;;;;;;1.15;0.80;;;11.10;99.90;;;;;;4942413;29;20191;-91
2023/01/06 12:59:12;;;;;;;1.90;1.80;;;11.10;99.90;;;;;;4941973;29;20195;-91
2023/01/06 13:01:48;;;;;;;1.20;0.85;;;11.10;99.90;;;;;;4939980;29;20204;-91
2023/01/06 13:04:36;;;;;;;0.98;0.70;;;11.30;99.90;;;;;;4962504;29;20177;-91
2023/01/06 13:07:18;;;;;;;0.70;0.60;;;11.40;99.90;;;;;;4965887;29;20177;-90
2023/01/06 13:10:21;;;;;;;1.42;0.80;;;11.40;99.90;;;;;;4947392;29;20181;-90